Imperial, California
Current Conditions -  °F | °C
As of 4:53 PM on Wednesday 26 Nov 2014 (Local Time) from KIPL Reporting Station
Clear Clear  
Wind Chill: 70°   Ceiling: Unl
Heat Index: 70°   Visibility: 10mi
Dew Point: 35°   Wind: 3mph
Humidity: 28%   Direction: 340°NNW
Pressure: 30.15"   Gusts: NA
Location:  32.85°N, 115.57°W
Report Text: KIPL 270053Z AUTO 34003KT 10SM CLR 21/02 A3015 RMK AO2 SLP209 T02110017
Loading
Personal Weather Stations






























Interactive Weather Map New forecast layout! Learn more

10-Day Weather Forecast

Advertisements
Track Severe Weather on mobile